createdAt,value
2019-02-18T00:01:03.320Z,86.73
2019-02-18T00:03:29.571Z,87.00
2019-02-18T00:05:55.811Z,87.18
2019-02-18T00:08:22.041Z,86.77
2019-02-18T00:10:48.320Z,87.10
2019-02-18T00:13:14.559Z,86.51
2019-02-18T00:15:40.788Z,86.22
2019-02-18T00:18:07.033Z,86.19
2019-02-18T00:20:33.355Z,86.53
2019-02-18T00:22:59.598Z,85.74
2019-02-18T00:25:25.825Z,85.35
2019-02-18T00:27:52.070Z,85.19
2019-02-18T00:30:18.303Z,85.43
2019-02-18T00:32:44.567Z,84.61
2019-02-18T00:35:10.784Z,84.56
2019-02-18T00:37:37.079Z,84.68
2019-02-18T00:40:44.613Z,84.42
2019-02-18T00:43:52.197Z,84.71
2019-02-18T00:46:18.434Z,84.32
2019-02-18T00:48:44.689Z,83.62
2019-02-18T00:51:10.922Z,83.70
2019-02-18T00:53:37.166Z,83.86
2019-02-18T00:56:03.401Z,83.88
2019-02-18T00:58:29.647Z,83.89
2019-02-18T01:00:55.900Z,83.79
2019-02-18T01:03:22.138Z,83.89
2019-02-18T01:05:48.373Z,83.66
2019-02-18T01:08:14.625Z,83.13
2019-02-18T01:10:40.850Z,83.16
2019-02-18T01:13:07.087Z,83.36
2019-02-18T01:15:33.321Z,83.16
2019-02-18T01:17:59.568Z,82.77
2019-02-18T01:20:25.813Z,82.45
2019-02-18T01:22:52.044Z,82.60
2019-02-18T01:25:18.268Z,82.78
2019-02-18T01:27:44.521Z,82.98
2019-02-18T01:33:24.618Z,82.90
2019-02-18T01:35:50.843Z,83.00
2019-02-18T01:38:17.090Z,83.08
2019-02-18T01:40:43.321Z,83.46
2019-02-18T01:43:09.560Z,83.56
2019-02-18T01:45:35.792Z,84.09
2019-02-18T01:48:02.030Z,84.41
2019-02-18T01:50:28.257Z,84.00
2019-02-18T01:52:54.502Z,84.12
2019-02-18T01:55:20.734Z,84.65
2019-02-18T01:57:46.966Z,84.96
2019-02-18T02:00:54.529Z,85.48
2019-02-18T02:03:20.778Z,85.83
2019-02-18T02:05:47.001Z,86.02
2019-02-18T02:08:13.250Z,86.20
2019-02-18T02:10:39.487Z,86.34
2019-02-18T02:13:26.179Z,86.61
2019-02-18T02:15:52.425Z,86.97
2019-02-18T02:18:18.649Z,87.63
2019-02-18T02:20:44.904Z,87.25
2019-02-18T02:23:11.133Z,88.06
2019-02-18T02:25:37.382Z,88.38
2019-02-18T02:28:03.620Z,88.09
2019-02-18T02:30:29.864Z,88.99
2019-02-18T02:32:56.091Z,89.44
2019-02-18T02:35:22.368Z,90.04
2019-02-18T02:37:48.613Z,90.05
2019-02-18T02:40:14.864Z,90.07
2019-02-18T02:42:41.109Z,90.07
2019-02-18T02:45:48.682Z,90.60
2019-02-18T02:48:14.886Z,90.54
2019-02-18T02:50:41.136Z,90.16
2019-02-18T02:53:07.373Z,89.97
2019-02-18T02:55:33.623Z,90.05
2019-02-18T02:57:59.853Z,89.62
2019-02-18T03:00:26.107Z,89.78
2019-02-18T03:02:52.335Z,89.40
2019-02-18T03:08:19.840Z,89.08
2019-02-18T03:13:14.905Z,88.51
2019-02-18T03:15:41.155Z,88.35
2019-02-18T03:18:07.402Z,88.26
2019-02-18T03:20:33.637Z,88.05
2019-02-18T03:22:59.864Z,87.46
2019-02-18T03:26:07.416Z,87.51
2019-02-18T03:31:34.232Z,87.35
2019-02-18T03:37:14.216Z,86.64
2019-02-18T03:39:40.453Z,86.73
2019-02-18T03:42:06.697Z,86.79
2019-02-18T03:44:32.949Z,86.65
2019-02-18T03:46:59.165Z,86.63
2019-02-18T03:49:25.414Z,86.70
2019-02-18T03:51:51.637Z,86.46
2019-02-18T03:54:17.864Z,86.43
2019-02-18T03:56:44.111Z,86.38
2019-02-18T03:59:10.339Z,86.57
2019-02-18T04:01:36.633Z,86.72
2019-02-18T04:04:02.848Z,86.81
2019-02-18T04:06:29.071Z,87.07
2019-02-18T04:08:55.305Z,86.98
2019-02-18T04:11:21.547Z,87.47
2019-02-18T04:13:47.800Z,87.70
2019-02-18T04:16:14.043Z,87.81
2019-02-18T04:18:40.282Z,88.15
2019-02-18T04:21:06.511Z,88.10
2019-02-18T04:23:32.756Z,88.30
2019-02-18T04:25:58.980Z,88.44
2019-02-18T04:28:25.220Z,88.85
2019-02-18T04:30:51.454Z,88.62
2019-02-18T04:33:17.692Z,88.87
2019-02-18T04:35:43.964Z,89.21
2019-02-18T04:38:10.193Z,89.45
2019-02-18T04:40:36.420Z,89.39
2019-02-18T04:43:02.665Z,89.06
2019-02-18T04:45:28.877Z,89.17
2019-02-18T04:47:55.123Z,89.43
2019-02-18T04:50:21.348Z,89.77
2019-02-18T04:52:47.596Z,89.86
2019-02-18T04:55:13.834Z,90.13
2019-02-18T04:57:40.075Z,90.16
2019-02-18T05:03:06.640Z,90.23
2019-02-18T05:05:32.885Z,90.44
2019-02-18T05:07:59.124Z,90.56
2019-02-18T05:10:25.366Z,90.97
2019-02-18T05:12:51.594Z,90.85
2019-02-18T05:15:17.842Z,90.84
2019-02-18T05:17:44.075Z,90.62
2019-02-18T05:20:10.318Z,91.18
2019-02-18T05:22:36.571Z,91.27
2019-02-18T05:25:44.122Z,91.58
2019-02-18T05:28:10.366Z,92.12
2019-02-18T05:30:36.614Z,92.78
2019-02-18T05:33:02.854Z,93.08
2019-02-18T05:35:29.103Z,93.52
2019-02-18T05:37:55.335Z,94.08
2019-02-18T05:40:21.583Z,94.48
2019-02-18T05:42:47.803Z,94.89
2019-02-18T05:45:14.050Z,95.09
2019-02-18T05:47:40.272Z,95.34
2019-02-18T05:50:47.819Z,95.51
2019-02-18T05:53:14.075Z,95.64
2019-02-18T05:55:40.325Z,95.72
2019-02-18T05:58:06.546Z,95.88
2019-02-18T06:00:32.816Z,95.83
2019-02-18T06:02:59.046Z,95.96
2019-02-18T06:05:25.305Z,96.19
2019-02-18T06:07:51.540Z,96.29
2019-02-18T06:10:17.779Z,96.37
2019-02-18T06:12:44.012Z,96.47
2019-02-18T06:15:10.252Z,96.63
2019-02-18T06:17:36.488Z,96.73
2019-02-18T06:20:44.042Z,96.90
2019-02-18T06:23:10.292Z,96.97
2019-02-18T06:25:36.545Z,97.07
2019-02-18T06:28:04.864Z,97.12
2019-02-18T06:30:30.928Z,97.20
2019-02-18T06:32:57.189Z,97.39
2019-02-18T06:35:23.548Z,97.40
2019-02-18T06:37:49.777Z,97.32
2019-02-18T06:40:16.018Z,97.20
2019-02-18T06:42:42.261Z,97.12
2019-02-18T06:45:49.808Z,97.07
2019-02-18T06:51:03.685Z,96.74
2019-02-18T06:53:29.917Z,96.81
2019-02-18T06:55:56.166Z,96.60
2019-02-18T07:01:29.775Z,96.67
2019-02-18T07:04:15.764Z,96.60
2019-02-18T07:09:35.990Z,96.58
2019-02-18T07:12:22.000Z,96.50
2019-02-18T07:14:48.223Z,96.37
2019-02-18T07:17:14.473Z,96.43
2019-02-18T07:19:40.706Z,96.36
2019-02-18T07:22:06.970Z,96.28
2019-02-18T07:24:33.200Z,96.25
2019-02-18T07:26:59.447Z,96.46
2019-02-18T07:29:25.672Z,96.31
2019-02-18T07:31:51.914Z,96.52
2019-02-18T07:34:18.153Z,96.41
2019-02-18T07:36:44.390Z,96.38
2019-02-18T07:39:10.624Z,96.23
2019-02-18T07:41:36.857Z,96.38
2019-02-18T07:44:03.131Z,96.21
2019-02-18T07:46:29.355Z,96.29
2019-02-18T07:48:55.596Z,96.06
2019-02-18T07:51:21.835Z,96.02
2019-02-18T07:53:48.067Z,96.07
2019-02-18T07:56:14.299Z,96.02
2019-02-18T07:58:40.549Z,95.97
2019-02-18T08:01:07.012Z,95.98
2019-02-18T08:03:33.247Z,95.65
2019-02-18T08:05:59.481Z,95.64
2019-02-18T08:08:25.715Z,95.31
2019-02-18T08:10:51.950Z,95.22
2019-02-18T08:13:18.244Z,95.12
2019-02-18T08:15:44.471Z,94.96
2019-02-18T08:18:10.705Z,94.62
2019-02-18T08:20:37.009Z,94.48
2019-02-18T08:23:03.268Z,94.20
2019-02-18T08:25:29.520Z,93.99
2019-02-18T08:27:55.762Z,94.03
2019-02-18T08:30:22.005Z,94.02
2019-02-18T08:32:48.240Z,93.94
2019-02-18T08:35:14.491Z,93.76
2019-02-18T08:37:40.771Z,93.57
2019-02-18T08:40:48.319Z,93.49
2019-02-18T08:43:14.546Z,93.50
2019-02-18T08:45:40.881Z,93.33
2019-02-18T08:48:07.114Z,93.18
2019-02-18T08:50:33.355Z,92.96
2019-02-18T08:52:59.588Z,93.09
2019-02-18T08:55:25.844Z,93.17
2019-02-18T08:57:52.073Z,93.17
2019-02-18T09:00:18.337Z,93.02
2019-02-18T09:02:44.570Z,92.99
2019-02-18T09:05:11.015Z,92.92
2019-02-18T09:07:37.256Z,92.84
2019-02-18T09:10:44.818Z,92.71
2019-02-18T09:13:11.048Z,92.68
2019-02-18T09:15:37.293Z,92.56
2019-02-18T09:18:03.525Z,92.52
2019-02-18T09:20:29.782Z,92.45
2019-02-18T09:23:15.794Z,92.43
2019-02-18T09:26:23.364Z,92.10
2019-02-18T09:28:49.596Z,92.01
2019-02-18T09:33:53.375Z,91.69
2019-02-18T09:36:21.372Z,91.54
2019-02-18T09:38:47.775Z,91.53
2019-02-18T09:41:14.021Z,91.34
2019-02-18T09:43:40.250Z,91.23
2019-02-18T09:46:06.500Z,91.15
2019-02-18T09:48:32.748Z,91.12
2019-02-18T09:51:00.078Z,91.06
2019-02-18T09:53:27.136Z,90.79
2019-02-18T09:55:53.400Z,90.81
2019-02-18T09:58:19.638Z,90.80
2019-02-18T10:00:45.909Z,90.65
2019-02-18T10:03:12.149Z,90.47
2019-02-18T10:05:38.368Z,90.42
2019-02-18T10:08:04.615Z,90.40
2019-02-18T10:10:30.857Z,90.39
2019-02-18T10:12:59.504Z,90.51
2019-02-18T10:17:53.281Z,90.29
2019-02-18T10:20:19.514Z,90.19
2019-02-18T10:22:45.768Z,90.24
2019-02-18T10:25:33.561Z,90.22
2019-02-18T10:27:59.820Z,90.26
2019-02-18T10:30:26.068Z,90.18
2019-02-18T10:32:52.317Z,90.18
2019-02-18T10:35:18.555Z,90.14
2019-02-18T10:37:54.632Z,90.15
2019-02-18T10:40:12.952Z,90.07
2019-02-18T10:42:39.200Z,90.06
2019-02-18T10:45:25.198Z,90.06
2019-02-18T10:47:51.446Z,89.97
2019-02-18T10:50:17.682Z,89.83
2019-02-18T10:52:43.933Z,89.86
2019-02-18T10:55:51.470Z,89.85
2019-02-18T10:58:17.733Z,89.78
2019-02-18T11:00:43.979Z,89.70
2019-02-18T11:03:10.228Z,90.05
2019-02-18T11:08:06.401Z,89.94
2019-02-18T11:10:32.643Z,90.08
2019-02-18T11:12:58.877Z,90.00
2019-02-18T11:15:27.011Z,89.95
2019-02-18T11:17:53.259Z,89.83
2019-02-18T11:20:19.491Z,90.03
2019-02-18T11:22:45.762Z,90.07
2019-02-18T11:28:25.132Z,90.32
2019-02-18T11:30:51.367Z,90.36
2019-02-18T11:33:17.604Z,90.62
2019-02-18T11:35:43.837Z,90.67
2019-02-18T11:38:10.076Z,90.76
2019-02-18T11:40:36.406Z,90.74
2019-02-18T11:43:02.651Z,90.84
2019-02-18T11:45:28.898Z,90.77
2019-02-18T11:47:55.130Z,90.95
2019-02-18T11:50:21.383Z,90.91
2019-02-18T11:52:47.623Z,90.71
2019-02-18T11:55:13.878Z,90.48
2019-02-18T11:57:42.122Z,90.79
2019-02-18T12:00:49.703Z,90.71
2019-02-18T12:03:15.949Z,90.69
2019-02-18T12:08:20.317Z,90.94
2019-02-18T12:10:46.573Z,90.58
2019-02-18T12:13:12.809Z,90.68
2019-02-18T12:15:39.062Z,90.74
2019-02-18T12:18:05.301Z,90.68
2019-02-18T12:20:31.554Z,90.44
2019-02-18T12:22:57.827Z,90.68
2019-02-18T12:25:24.285Z,90.49
2019-02-18T12:27:50.521Z,90.37
2019-02-18T12:30:58.091Z,90.08
2019-02-18T12:33:24.635Z,89.97
2019-02-18T12:35:50.878Z,89.97
2019-02-18T12:38:17.498Z,89.96
2019-02-18T12:43:22.198Z,90.25
2019-02-18T12:45:48.763Z,90.23
2019-02-18T12:48:16.896Z,90.38
2019-02-18T12:50:43.151Z,90.53
2019-02-18T12:53:09.402Z,90.63
2019-02-18T12:55:35.881Z,90.57
2019-02-18T12:58:03.791Z,90.54
2019-02-18T13:00:30.268Z,90.76
2019-02-18T13:02:56.504Z,90.77
2019-02-18T13:05:22.758Z,90.95
2019-02-18T13:07:49.007Z,91.02
2019-02-18T13:10:15.262Z,91.16
2019-02-18T13:12:43.395Z,91.25
2019-02-18T13:15:50.935Z,91.45
2019-02-18T13:18:17.181Z,91.40
2019-02-18T13:20:43.437Z,91.54
2019-02-18T13:23:11.583Z,91.44
2019-02-18T13:25:37.837Z,91.34
2019-02-18T13:28:08.405Z,91.35
2019-02-18T13:30:32.263Z,91.35
2019-02-18T13:32:58.501Z,91.35
2019-02-18T13:35:24.780Z,91.47
2019-02-18T13:37:51.016Z,91.28
2019-02-18T13:40:17.266Z,90.95
2019-02-18T13:42:45.447Z,90.92
2019-02-18T13:48:19.044Z,91.07
2019-02-18T13:50:45.496Z,91.32
2019-02-18T13:53:11.748Z,91.39
2019-02-18T13:55:38.145Z,91.15
2019-02-18T13:58:04.399Z,91.06
2019-02-18T14:00:30.956Z,91.29
2019-02-18T14:02:57.253Z,91.05
2019-02-18T14:05:23.481Z,91.35
2019-02-18T14:07:49.746Z,91.66
2019-02-18T14:13:31.970Z,91.53
2019-02-18T14:16:00.112Z,91.57
2019-02-18T14:18:26.388Z,91.94
2019-02-18T14:20:52.629Z,92.02
2019-02-18T14:23:18.884Z,92.07
2019-02-18T14:25:45.134Z,91.95
2019-02-18T14:28:11.381Z,92.08
2019-02-18T14:30:37.613Z,92.04
2019-02-18T14:33:03.864Z,92.23
2019-02-18T14:35:32.050Z,92.38
2019-02-18T14:37:58.357Z,92.01
2019-02-18T14:43:32.098Z,92.25
2019-02-18T14:45:58.346Z,92.52
2019-02-18T14:48:24.591Z,92.22
2019-02-18T14:50:56.485Z,92.36
2019-02-18T14:53:19.029Z,92.02
2019-02-18T14:55:45.338Z,92.81
2019-02-18T15:00:45.506Z,92.77
2019-02-18T15:03:11.762Z,93.05
2019-02-18T15:05:38.000Z,92.91
2019-02-18T15:10:38.405Z,92.59
2019-02-18T15:13:04.674Z,92.73
2019-02-18T15:15:30.906Z,93.17
2019-02-18T15:20:35.432Z,93.25
2019-02-18T15:23:01.685Z,92.86
2019-02-18T15:25:27.916Z,92.81
2019-02-18T15:27:54.174Z,92.60
2019-02-18T15:33:08.046Z,92.99
2019-02-18T15:35:34.357Z,92.85
2019-02-18T15:38:00.599Z,92.79
2019-02-18T15:40:26.837Z,92.88
2019-02-18T15:42:53.068Z,93.13
2019-02-18T15:45:19.312Z,93.06
2019-02-18T15:47:45.542Z,93.25
2019-02-18T15:50:13.819Z,93.24
2019-02-18T15:52:40.059Z,93.11
2019-02-18T15:55:47.612Z,93.21
2019-02-18T15:58:13.969Z,93.34
2019-02-18T16:00:40.236Z,93.63
2019-02-18T16:03:06.476Z,93.32
2019-02-18T16:05:32.716Z,94.01
2019-02-18T16:07:58.993Z,93.82
2019-02-18T16:10:25.218Z,93.86
2019-02-18T16:12:51.453Z,93.59
2019-02-18T16:15:17.706Z,93.49
2019-02-18T16:17:45.855Z,93.29
2019-02-18T16:20:53.406Z,93.57
2019-02-18T16:23:19.685Z,93.45
2019-02-18T16:25:47.871Z,93.66
2019-02-18T16:28:14.109Z,94.46
2019-02-18T16:30:40.370Z,94.04
2019-02-18T16:33:06.604Z,93.72
2019-02-18T16:35:34.765Z,93.56
2019-02-18T16:38:01.007Z,93.53
2019-02-18T16:40:29.288Z,93.69
2019-02-18T16:42:59.390Z,94.11
2019-02-18T16:45:24.240Z,94.75
2019-02-18T16:47:50.479Z,94.14
2019-02-18T16:50:16.745Z,94.87
2019-02-18T16:52:42.975Z,94.90
2019-02-18T16:55:50.748Z,94.95
2019-02-18T16:58:17.029Z,94.60
2019-02-18T17:00:43.304Z,94.56
2019-02-18T17:03:09.713Z,94.21
2019-02-18T17:05:35.977Z,94.16
2019-02-18T17:08:02.217Z,94.86
2019-02-18T17:10:30.384Z,94.64
2019-02-18T17:12:56.640Z,94.47
2019-02-18T17:15:22.909Z,94.24
2019-02-18T17:17:49.131Z,94.31
2019-02-18T17:20:15.368Z,95.29
2019-02-18T17:22:41.610Z,94.83
2019-02-18T17:25:49.178Z,94.56
2019-02-18T17:28:15.542Z,94.53
2019-02-18T17:30:41.798Z,94.81
2019-02-18T17:33:08.031Z,95.30
2019-02-18T17:35:34.268Z,94.98
2019-02-18T17:38:00.520Z,95.02
2019-02-18T17:40:26.783Z,95.62
2019-02-18T17:42:53.028Z,95.95
2019-02-18T17:45:19.256Z,96.27
2019-02-18T17:47:45.497Z,96.24
2019-02-18T17:50:31.507Z,96.01
2019-02-18T17:52:58.234Z,96.39
2019-02-18T17:55:25.917Z,96.10
2019-02-18T17:57:52.170Z,95.94
2019-02-18T18:00:59.698Z,96.24
2019-02-18T18:03:26.266Z,96.11
2019-02-18T18:06:12.275Z,96.11
2019-02-18T18:08:38.529Z,96.22
2019-02-18T18:11:04.765Z,96.26
2019-02-18T18:13:31.033Z,96.54
2019-02-18T18:15:59.178Z,96.25
2019-02-18T18:18:25.432Z,95.96
2019-02-18T18:20:51.666Z,95.80
2019-02-18T18:23:17.976Z,95.58
2019-02-18T18:25:44.209Z,95.94
2019-02-18T18:28:10.440Z,95.74
2019-02-18T18:30:36.686Z,95.55
2019-02-18T18:33:03.017Z,95.45
2019-02-18T18:35:31.181Z,95.29
2019-02-18T18:37:57.469Z,95.20
2019-02-18T18:40:23.708Z,95.20
2019-02-18T18:42:49.942Z,95.28
2019-02-18T18:45:57.506Z,95.25
2019-02-18T18:48:23.746Z,95.23
2019-02-18T18:50:49.984Z,95.20
2019-02-18T18:53:16.237Z,95.23
2019-02-18T18:55:42.616Z,95.15
2019-02-18T18:58:08.865Z,95.09
2019-02-18T19:00:35.104Z,95.12
2019-02-18T19:03:03.277Z,95.21
2019-02-18T19:05:29.495Z,95.30
2019-02-18T19:07:55.733Z,95.28
2019-02-18T19:10:21.969Z,95.11
2019-02-18T19:12:48.221Z,95.22
2019-02-18T19:15:55.763Z,95.30
2019-02-18T19:18:22.028Z,95.26
2019-02-18T19:20:48.263Z,95.32
2019-02-18T19:23:14.514Z,95.16
2019-02-18T19:25:40.745Z,95.43
2019-02-18T19:28:06.975Z,95.48
2019-02-18T19:30:33.316Z,95.71
2019-02-18T19:32:59.555Z,95.61
2019-02-18T19:35:25.799Z,95.36
2019-02-18T19:37:52.037Z,95.13
2019-02-18T19:40:18.289Z,95.19
2019-02-18T19:42:44.524Z,95.11
2019-02-18T19:45:52.088Z,95.08
2019-02-18T19:48:18.335Z,95.31
2019-02-18T19:50:44.579Z,95.21
2019-02-18T19:53:10.833Z,95.10
2019-02-18T19:55:37.072Z,95.08
2019-02-18T19:58:03.311Z,95.02
2019-02-18T20:00:29.561Z,95.00
2019-02-18T20:02:55.813Z,94.89
2019-02-18T20:05:22.058Z,94.97
2019-02-18T20:07:48.303Z,94.79
2019-02-18T20:10:14.588Z,94.69
2019-02-18T20:12:40.816Z,94.74
2019-02-18T20:15:28.805Z,94.76
2019-02-18T20:17:55.049Z,94.91
2019-02-18T20:20:21.293Z,95.17
2019-02-18T20:22:47.539Z,95.10
2019-02-18T20:25:13.792Z,95.13
2019-02-18T20:27:40.075Z,95.04
2019-02-18T20:30:26.076Z,94.96
2019-02-18T20:32:52.319Z,94.89
2019-02-18T20:35:18.580Z,94.97
2019-02-18T20:37:44.820Z,94.58
2019-02-18T20:40:11.171Z,94.70
2019-02-18T20:42:39.328Z,94.63
2019-02-18T20:45:25.311Z,94.58
2019-02-18T20:47:51.547Z,94.22
2019-02-18T20:50:17.790Z,94.72
2019-02-18T20:52:44.020Z,95.07
2019-02-18T20:55:51.560Z,95.40
2019-02-18T20:58:17.811Z,95.36
2019-02-18T21:00:44.057Z,95.49
2019-02-18T21:03:10.426Z,95.56
2019-02-18T21:05:36.871Z,95.20
2019-02-18T21:10:50.708Z,94.75
2019-02-18T21:13:16.954Z,94.80
2019-02-18T21:15:43.194Z,94.92
2019-02-18T21:18:11.328Z,94.88
2019-02-18T21:20:37.567Z,95.21
2019-02-18T21:23:03.810Z,95.50
2019-02-18T21:25:30.045Z,95.64
2019-02-18T21:27:56.283Z,95.92
2019-02-18T21:30:22.510Z,96.14
2019-02-18T21:32:48.795Z,96.16
2019-02-18T21:35:15.020Z,96.23
2019-02-18T21:37:43.172Z,96.12
2019-02-18T21:40:29.162Z,96.04
2019-02-18T21:42:55.411Z,95.79
2019-02-18T21:45:21.641Z,95.70
2019-02-18T21:47:47.893Z,95.57
2019-02-18T21:50:14.129Z,95.52
2019-02-18T21:52:40.360Z,95.53
2019-02-18T21:55:47.898Z,95.50
2019-02-18T21:58:14.762Z,95.54
2019-02-18T22:00:42.343Z,95.66
2019-02-18T22:03:08.581Z,95.77
2019-02-18T22:05:34.812Z,95.93
2019-02-18T22:08:01.068Z,96.12
2019-02-18T22:10:27.292Z,96.05
2019-02-18T22:12:53.546Z,96.06
2019-02-18T22:15:19.771Z,96.17
2019-02-18T22:17:46.012Z,96.41
2019-02-18T22:20:14.149Z,96.47
2019-02-18T22:22:40.395Z,96.76
2019-02-18T22:28:20.244Z,97.09
2019-02-18T22:30:46.475Z,96.81
2019-02-18T22:33:12.741Z,96.82
2019-02-18T22:35:45.748Z,96.78
2019-02-18T22:38:11.991Z,96.83
2019-02-18T22:40:38.221Z,96.79
2019-02-18T22:43:04.459Z,96.82
2019-02-18T22:45:30.683Z,96.80
2019-02-18T22:47:57.155Z,96.55
2019-02-18T22:50:23.389Z,96.54
2019-02-18T22:52:49.648Z,96.48
2019-02-18T22:55:15.884Z,95.37
2019-02-18T22:57:42.131Z,94.99
2019-02-18T23:00:49.665Z,95.88
2019-02-18T23:03:15.920Z,96.36
2019-02-18T23:05:42.171Z,96.89
2019-02-18T23:08:08.424Z,94.84
2019-02-18T23:10:34.652Z,95.27
2019-02-18T23:13:00.896Z,96.31
2019-02-18T23:15:27.131Z,96.57
2019-02-18T23:17:55.279Z,96.65
2019-02-18T23:20:21.519Z,96.84
2019-02-18T23:22:47.754Z,96.98
2019-02-18T23:25:14.012Z,96.93
2019-02-18T23:27:40.236Z,96.85
2019-02-18T23:30:47.795Z,96.78
2019-02-18T23:33:14.036Z,96.59
2019-02-18T23:35:40.292Z,96.72
2019-02-18T23:38:06.534Z,96.82
2019-02-18T23:40:32.784Z,96.90
2019-02-18T23:42:59.037Z,96.89
2019-02-18T23:45:25.257Z,96.93
2019-02-18T23:47:51.484Z,96.93
2019-02-18T23:50:17.724Z,96.85
2019-02-18T23:52:43.956Z,96.76
2019-02-18T23:55:10.203Z,96.74
2019-02-18T23:57:36.438Z,96.66
